KBFM/BFM METAR and TAF weather

Enter ICAO airport designator
Station Type Date Time Source
KBFM METAR 2019/07/17 18:53 UTC NOAA

KBFM 171853Z 14008KT 10SM SCT030 33/25 A3013 RMK AO2 SLP204 T03330250


Station Type Date Time Source
KBFM Decoded METAR 2019/07/17 18:53 UTC NOAA

MOBILE DOWNTOWN AIRPORT, AL, United States (KBFM) 30-38N 88-04W 20M
Jul 17, 2019 - 02:53 PM EDT / 2019.07.17 1853 UTC
Wind: from the SE (140 degrees) at 9 MPH (8 KT):0
Visibility: 10 mile(s):0
Sky conditions: partly cloudy
Temperature: 91.9 F (33.3 C)
Heat index: 105.1 F (40.6 C):1
Dew Point: 77.0 F (25.0 C)
Relative Humidity: 61%
Pressure (altimeter): 30.13 in. Hg (1020 hPa)
ob: KBFM 171853Z 14008KT 10SM SCT030 33/25 A3013 RMK AO2 SLP204 T03330250
cycle: 19

Station Type Date Time Source
KBFM TAF 2019/07/17 18:39 UTC NOAA

TAF KBFM 171736Z 1718/1818 15007KT P6SM SCT035
FM180200 00000KT P6SM SKC
FM181300 VRB02KT P6SM SCT010 BKN018
FM181500 30005KT P6SM SCT020

Example: see airport list